CheckWX is a tool to help pilots better visualize weather data.  It is not intended as a substitute for an official pre-flight weather briefing.

08:37:17 UTC

KONP METAR
Newport Municipal Airport
Newport, Oregon, USA
Current

22 mins ago

KONP 220815Z AUTO 10005KT 7SM CLR 01/00 A3016 RMK AO2
Observed
Feb-22 @ 08:15 UTC
Wind
  • 100° at 5 KTS
Visibility
7 SM
Flight Rules
VFR
Cloud Levels
  • Clear skies
Temperature
C / 34°F
Dewpoint
C / 32°F
Humidity
93%
Altimeter
30.16" Hg
Pressure
1021.32 hPa
Previous

42 mins ago

KONP 220755Z AUTO 10006KT 10SM CLR 01/00 A3016 RMK AO2
Observed
Feb-22 @ 07:55 UTC
Wind
  • 100° at 6 KTS
Visibility
10 SM
Flight Rules
VFR
Cloud Levels
  • Clear skies
Temperature
C / 34°F
Dewpoint
C / 32°F
Humidity
93%
Altimeter
30.16" Hg
Pressure
1021.32 hPa
Previous

1 hour ago

KONP 220735Z AUTO 08004KT 10SM CLR 01/00 A3016 RMK AO2
Observed
Feb-22 @ 07:35 UTC
Wind
  • 080° at 4 KTS
Visibility
10 SM
Flight Rules
VFR
Cloud Levels
  • Clear skies
Temperature
C / 34°F
Dewpoint
C / 32°F
Humidity
93%
Altimeter
30.16" Hg
Pressure
1021.32 hPa